< < Back
Terminal Aerodrome Forecast


Current Version              Previous Versions:   1  2  3  4  5  6  7  8  9  

Terminal Aerodrome Forecast

107
FTUS42 KCAE 281136
TAFAGS
TAF
KAGS 281136Z 2812/2912 VRB05KT P6SM SKC
     FM281600 24010G18KT P6SM SCT060
     FM290000 22007KT P6SM SKC=

Latest METAR

541
SAUS70 KWBC 282000 RRE
MTRAGS
METAR KAGS 281953Z AUTO 26017G21KT 10SM FEW070 37/18 A2993 RMK AO2
SLP132 T03670178 $


USA.gov is the U.S. government's official web portal to all federal, state and local government web resources and services.